KENV

Wendover Airport

Wendover, Utah, USA
KENV 231120Z 2312/2412 VRB04KT P6SM FEW150 BKN200 FM231700 12010KT P6SM SCT150 SCT200 FM240100 04006KT P6SM BKN200
Issued Valid From Valid To
Jul-23 @ 11:20 UTC
(2 hours ago)
Jul-23 @ 12:00 UTC
(2 hours ago)
Jul-24 @ 12:00 UTC
(in 22 hours)
Jul-23 @ 12:00 to Jul-23 @ 17:00
KENV 231120Z 2312/2412 VRB04KT P6SM FEW150 BKN200
Wind Visibility Clouds
Variable at 4 knots Greater than 6 miles
  • Few at 15,000' AGL
  • Broken at 20,000' AGL
From Jul-23 @ 17:00 to Jul-24 @ 01:00
FM231700 12010KT P6SM SCT150 SCT200
Wind Visibility Clouds
120° at 10 knots Greater than 6 miles
  • Scattered at 15,000' AGL
  • Scattered at 20,000' AGL
From Jul-24 @ 01:00 to Jul-24 @ 12:00
FM240100 04006KT P6SM BKN200
Wind Visibility Clouds
40° at 6 knots Greater than 6 miles
  • Broken at 20,000' AGL
KENV 231120Z 2312/2412 VRB04KT P6SM FEW150 BKN200 FM231700 12010KT P6SM SCT150 SCT200 FM240100 04006KT P6SM BKN200
Issued Jul-23 @ 11:20 UTC
(2 hours ago)
Valid From Jul-23 @ 12:00 UTC
(2 hours ago)
Valid To Jul-24 @ 12:00 UTC
(in 22 hours)
Jul-23 @ 12:00 - Jul-23 @ 17:00
Wind Visibility
Variable at 4 knots Greater than 6 miles
Clouds
  • Few at 15,000' AGL
  • Broken at 20,000' AGL
From Jul-23 @ 17:00 - Jul-24 @ 01:00
Wind Visibility
120° at 10 knots Greater than 6 miles
Clouds
  • Scattered at 15,000' AGL
  • Scattered at 20,000' AGL
From Jul-24 @ 01:00 - Jul-24 @ 12:00
Wind Visibility
40° at 6 knots Greater than 6 miles
Clouds
  • Broken at 20,000' AGL